الصفحة الرئيسية
METAR-TAF:

METAR-TAF

مطار :

نيروبي, كينيا

دائرة عرض: 01-19S, خط طول: 036-49E, ارتفاع: 1683 متر

مراقبة الطقس الحالي

تاريخ ووقت الإصدار 56 دقيقة قبل الساعة 05:00UTC
رياح هادئة
درجة الحرارة 15°درجة مئوية
الرطوبة 88%
ضغط 1026 hPa
الرؤية 10 كم أو أكثر
غيوم مفككة على ارتفاع 2000 قدم

METAR: HKNW 160500Z 00000KT 9999 BKN020 15/13 Q1026

زمن: 08:56 (05:56 UTC)

توقعات

تاريخ ووقت الإصدار 56 دقيقة قبل الساعة 05:00UTC
التوقعات صالحة من16 الساعة 06 UTC إلى 17 الساعة 06 UTC
ريح 2 عقدةمن اتجاهات متغيرة
الرؤية 10 كم أو أكثر
غيوم مفككة على ارتفاع 1900 قدم
أصبح
من 16 الساعة 09 UTC إلى 16 الساعة 12 UTC
ريح 10 عقدة من الجنوب الشرقي
غيوم مفككة على ارتفاع 2400 قدم
أصبح
من 16 الساعة 21 UTC إلى 16 الساعة 23 UTC
ريح 2 عقدةمن اتجاهات متغيرة
غيوم مفككة على ارتفاع 2000 قدم

TAF: HKNW 160500Z 1606/1706 VRB02KT 9999 BKN019 BECMG 1609/1612 13010KT BKN024 BECMG 1621/1623 VRB02KT BKN020

أرصاد الطقس والتوقعات من أكثر من 4000 مطار (تقارير الطقس للمطار METAR والتنبؤ بالطقس بالمطارTAF).

المحطات المتاحة هي النقط الصفراء والحمراء على الخريطة.

حرك المؤشر فوق النقطة لمعرفة اسم المحطة.

ثم انقر لمعرفة أرصاد وتوقعات الطقس.

لتغيير الخارطة: اضغط على الأزرار الخضراء مع رمز الصليب الأسود للتكبير. على الزر الأخضر مع شرطة للتصغير، أو على الأسهم الخضراء للخرائط المجاورة.


METAR-TAF: